sensor_id;sensor_type;location;lat;lon;timestamp;P1;durP1;ratioP1;P2;durP2;ratioP2
22268;SDS011;11303;50.772;19.670;2024-02-16T00:00:00;99.95;;;46.58;;
22268;SDS011;11303;50.772;19.670;2024-02-16T00:02:02;84.75;;;39.92;;
22268;SDS011;11303;50.772;19.670;2024-02-16T00:04:04;69.38;;;36.20;;
22268;SDS011;11303;50.772;19.670;2024-02-16T00:06:06;73.88;;;41.55;;
22268;SDS011;11303;50.772;19.670;2024-02-16T00:08:08;61.92;;;34.20;;
22268;SDS011;11303;50.772;19.670;2024-02-16T00:10:10;58.58;;;30.83;;
22268;SDS011;11303;50.772;19.670;2024-02-16T00:12:13;56.80;;;28.75;;
22268;SDS011;11303;50.772;19.670;2024-02-16T00:14:16;57.22;;;29.13;;
22268;SDS011;11303;50.772;19.670;2024-02-16T00:16:17;69.80;;;38.13;;
22268;SDS011;11303;50.772;19.670;2024-02-16T00:18:19;75.13;;;39.58;;
22268;SDS011;11303;50.772;19.670;2024-02-16T00:20:21;87.88;;;47.90;;
22268;SDS011;11303;50.772;19.670;2024-02-16T00:22:24;78.38;;;40.80;;
22268;SDS011;11303;50.772;19.670;2024-02-16T00:24:25;66.55;;;35.95;;
22268;SDS011;11303;50.772;19.670;2024-02-16T00:26:27;70.93;;;37.38;;
22268;SDS011;11303;50.772;19.670;2024-02-16T00:28:29;78.15;;;44.72;;
22268;SDS011;11303;50.772;19.670;2024-02-16T00:30:30;101.28;;;49.25;;
22268;SDS011;11303;50.772;19.670;2024-02-16T00:32:32;85.63;;;42.42;;
22268;SDS011;11303;50.772;19.670;2024-02-16T00:34:34;83.93;;;42.95;;
22268;SDS011;11303;50.772;19.670;2024-02-16T00:36:40;81.28;;;39.13;;
22268;SDS011;11303;50.772;19.670;2024-02-16T00:38:41;74.57;;;38.28;;
22268;SDS011;11303;50.772;19.670;2024-02-16T00:40:43;90.95;;;44.90;;
22268;SDS011;11303;50.772;19.670;2024-02-16T00:42:46;90.18;;;43.30;;
22268;SDS011;11303;50.772;19.670;2024-02-16T00:44:47;99.93;;;48.10;;
22268;SDS011;11303;50.772;19.670;2024-02-16T00:46:49;101.13;;;49.58;;
22268;SDS011;11303;50.772;19.670;2024-02-16T00:48:51;87.40;;;45.85;;
22268;SDS011;11303;50.772;19.670;2024-02-16T00:50:54;85.68;;;43.45;;
22268;SDS011;11303;50.772;19.670;2024-02-16T00:52:55;100.43;;;48.00;;
22268;SDS011;11303;50.772;19.670;2024-02-16T00:54:57;83.35;;;43.40;;
22268;SDS011;11303;50.772;19.670;2024-02-16T00:56:59;98.40;;;54.00;;
22268;SDS011;11303;50.772;19.670;2024-02-16T00:59:04;70.40;;;37.08;;
22268;SDS011;11303;50.772;19.670;2024-02-16T01:01:06;81.10;;;43.20;;
22268;SDS011;11303;50.772;19.670;2024-02-16T01:03:11;89.63;;;41.65;;
22268;SDS011;11303;50.772;19.670;2024-02-16T01:05:16;91.30;;;45.55;;
22268;SDS011;11303;50.772;19.670;2024-02-16T01:07:19;82.13;;;43.40;;
22268;SDS011;11303;50.772;19.670;2024-02-16T01:09:21;89.70;;;41.90;;
22268;SDS011;11303;50.772;19.670;2024-02-16T01:11:23;82.72;;;41.70;;
22268;SDS011;11303;50.772;19.670;2024-02-16T01:13:24;68.30;;;35.70;;
22268;SDS011;11303;50.772;19.670;2024-02-16T01:15:26;85.25;;;43.05;;
22268;SDS011;11303;50.772;19.670;2024-02-16T01:17:28;81.82;;;46.35;;
22268;SDS011;11303;50.772;19.670;2024-02-16T01:19:31;92.40;;;51.90;;
22268;SDS011;11303;50.772;19.670;2024-02-16T01:21:35;92.97;;;51.10;;
22268;SDS011;11303;50.772;19.670;2024-02-16T01:23:36;95.75;;;52.10;;
22268;SDS011;11303;50.772;19.670;2024-02-16T01:25:38;93.43;;;49.58;;
22268;SDS011;11303;50.772;19.670;2024-02-16T01:27:39;96.65;;;50.05;;
22268;SDS011;11303;50.772;19.670;2024-02-16T01:29:42;98.90;;;55.92;;
22268;SDS011;11303;50.772;19.670;2024-02-16T01:31:44;96.88;;;46.47;;
22268;SDS011;11303;50.772;19.670;2024-02-16T01:33:46;89.38;;;46.05;;
22268;SDS011;11303;50.772;19.670;2024-02-16T01:35:48;118.53;;;52.97;;
22268;SDS011;11303;50.772;19.670;2024-02-16T01:37:50;99.05;;;50.25;;
22268;SDS011;11303;50.772;19.670;2024-02-16T01:39:51;115.20;;;59.53;;
22268;SDS011;11303;50.772;19.670;2024-02-16T01:41:53;116.00;;;59.83;;
22268;SDS011;11303;50.772;19.670;2024-02-16T01:43:55;108.80;;;53.75;;
22268;SDS011;11303;50.772;19.670;2024-02-16T01:45:57;105.88;;;55.35;;
22268;SDS011;11303;50.772;19.670;2024-02-16T01:48:01;94.38;;;49.35;;
22268;SDS011;11303;50.772;19.670;2024-02-16T01:50:02;107.00;;;56.33;;
22268;SDS011;11303;50.772;19.670;2024-02-16T01:52:04;105.53;;;56.92;;
22268;SDS011;11303;50.772;19.670;2024-02-16T01:54:06;105.60;;;54.83;;
22268;SDS011;11303;50.772;19.670;2024-02-16T01:56:08;86.22;;;45.85;;
22268;SDS011;11303;50.772;19.670;2024-02-16T01:58:10;90.32;;;47.05;;
22268;SDS011;11303;50.772;19.670;2024-02-16T02:00:12;85.75;;;46.17;;
22268;SDS011;11303;50.772;19.670;2024-02-16T02:02:16;81.32;;;40.90;;
22268;SDS011;11303;50.772;19.670;2024-02-16T02:04:18;96.25;;;49.70;;
22268;SDS011;11303;50.772;19.670;2024-02-16T02:06:21;85.43;;;41.83;;
22268;SDS011;11303;50.772;19.670;2024-02-16T02:08:23;89.40;;;42.90;;
22268;SDS011;11303;50.772;19.670;2024-02-16T02:10:26;78.65;;;39.88;;
22268;SDS011;11303;50.772;19.670;2024-02-16T02:12:27;90.30;;;45.47;;
22268;SDS011;11303;50.772;19.670;2024-02-16T02:14:29;85.57;;;44.53;;
22268;SDS011;11303;50.772;19.670;2024-02-16T02:16:31;77.90;;;39.67;;
22268;SDS011;11303;50.772;19.670;2024-02-16T02:18:47;82.95;;;44.22;;
22268;SDS011;11303;50.772;19.670;2024-02-16T02:20:49;87.55;;;44.70;;
22268;SDS011;11303;50.772;19.670;2024-02-16T02:22:51;88.68;;;43.53;;
22268;SDS011;11303;50.772;19.670;2024-02-16T02:24:52;89.25;;;45.22;;
22268;SDS011;11303;50.772;19.670;2024-02-16T02:26:56;87.22;;;45.58;;
22268;SDS011;11303;50.772;19.670;2024-02-16T02:28:58;87.78;;;47.15;;
22268;SDS011;11303;50.772;19.670;2024-02-16T02:31:00;84.55;;;44.17;;
22268;SDS011;11303;50.772;19.670;2024-02-16T02:33:02;86.45;;;44.45;;
22268;SDS011;11303;50.772;19.670;2024-02-16T02:35:04;80.40;;;40.83;;
22268;SDS011;11303;50.772;19.670;2024-02-16T02:37:06;80.95;;;39.25;;
22268;SDS011;11303;50.772;19.670;2024-02-16T02:39:08;73.47;;;38.00;;
22268;SDS011;11303;50.772;19.670;2024-02-16T02:41:11;78.30;;;42.65;;
22268;SDS011;11303;50.772;19.670;2024-02-16T02:43:13;84.25;;;40.80;;
22268;SDS011;11303;50.772;19.670;2024-02-16T02:45:15;89.75;;;44.55;;
22268;SDS011;11303;50.772;19.670;2024-02-16T02:47:17;78.45;;;40.60;;
22268;SDS011;11303;50.772;19.670;2024-02-16T02:49:19;84.43;;;45.42;;
22268;SDS011;11303;50.772;19.670;2024-02-16T02:51:21;94.38;;;46.80;;
22268;SDS011;11303;50.772;19.670;2024-02-16T02:53:22;75.75;;;40.30;;
22268;SDS011;11303;50.772;19.670;2024-02-16T02:55:24;80.18;;;40.83;;
22268;SDS011;11303;50.772;19.670;2024-02-16T02:57:25;89.07;;;46.75;;
22268;SDS011;11303;50.772;19.670;2024-02-16T02:59:27;90.15;;;48.42;;
22268;SDS011;11303;50.772;19.670;2024-02-16T03:01:29;96.70;;;50.15;;
22268;SDS011;11303;50.772;19.670;2024-02-16T03:03:31;102.78;;;53.50;;
22268;SDS011;11303;50.772;19.670;2024-02-16T03:05:32;99.22;;;49.60;;
22268;SDS011;11303;50.772;19.670;2024-02-16T03:07:34;99.32;;;48.25;;
22268;SDS011;11303;50.772;19.670;2024-02-16T03:09:36;94.22;;;47.65;;
22268;SDS011;11303;50.772;19.670;2024-02-16T03:11:38;103.50;;;53.80;;
22268;SDS011;11303;50.772;19.670;2024-02-16T03:13:40;97.68;;;49.20;;
22268;SDS011;11303;50.772;19.670;2024-02-16T03:15:41;77.53;;;41.47;;
22268;SDS011;11303;50.772;19.670;2024-02-16T03:17:43;80.95;;;40.83;;
22268;SDS011;11303;50.772;19.670;2024-02-16T03:19:45;88.63;;;46.03;;
22268;SDS011;11303;50.772;19.670;2024-02-16T03:21:48;94.22;;;42.78;;
22268;SDS011;11303;50.772;19.670;2024-02-16T03:23:50;101.35;;;47.55;;
22268;SDS011;11303;50.772;19.670;2024-02-16T03:25:51;102.15;;;50.25;;
22268;SDS011;11303;50.772;19.670;2024-02-16T03:27:53;103.05;;;50.85;;
22268;SDS011;11303;50.772;19.670;2024-02-16T03:29:54;100.30;;;48.42;;
22268;SDS011;11303;50.772;19.670;2024-02-16T03:31:56;101.18;;;52.30;;
22268;SDS011;11303;50.772;19.670;2024-02-16T03:33:58;88.03;;;46.47;;
22268;SDS011;11303;50.772;19.670;2024-02-16T03:36:00;98.50;;;48.47;;
22268;SDS011;11303;50.772;19.670;2024-02-16T03:38:02;100.68;;;52.70;;
22268;SDS011;11303;50.772;19.670;2024-02-16T03:40:05;108.25;;;57.92;;
22268;SDS011;11303;50.772;19.670;2024-02-16T03:42:07;93.88;;;52.38;;
22268;SDS011;11303;50.772;19.670;2024-02-16T03:44:08;110.60;;;52.35;;
22268;SDS011;11303;50.772;19.670;2024-02-16T03:46:10;98.68;;;51.00;;
22268;SDS011;11303;50.772;19.670;2024-02-16T03:48:12;101.40;;;48.85;;
22268;SDS011;11303;50.772;19.670;2024-02-16T03:50:14;105.32;;;55.13;;
22268;SDS011;11303;50.772;19.670;2024-02-16T03:52:16;104.95;;;50.72;;
22268;SDS011;11303;50.772;19.670;2024-02-16T03:54:17;92.00;;;49.45;;
22268;SDS011;11303;50.772;19.670;2024-02-16T03:56:19;93.55;;;47.63;;
22268;SDS011;11303;50.772;19.670;2024-02-16T03:58:22;93.22;;;46.08;;
22268;SDS011;11303;50.772;19.670;2024-02-16T04:00:25;100.88;;;50.45;;
22268;SDS011;11303;50.772;19.670;2024-02-16T04:02:27;90.72;;;44.97;;
22268;SDS011;11303;50.772;19.670;2024-02-16T04:04:28;88.97;;;44.00;;
22268;SDS011;11303;50.772;19.670;2024-02-16T04:06:30;96.63;;;45.30;;
22268;SDS011;11303;50.772;19.670;2024-02-16T04:08:32;92.32;;;46.33;;
22268;SDS011;11303;50.772;19.670;2024-02-16T04:10:34;87.45;;;44.35;;
22268;SDS011;11303;50.772;19.670;2024-02-16T04:12:35;89.50;;;44.20;;
22268;SDS011;11303;50.772;19.670;2024-02-16T04:14:37;89.13;;;42.65;;
22268;SDS011;11303;50.772;19.670;2024-02-16T04:16:39;70.35;;;32.97;;
22268;SDS011;11303;50.772;19.670;2024-02-16T04:18:44;98.90;;;48.60;;
22268;SDS011;11303;50.772;19.670;2024-02-16T04:20:46;94.50;;;46.13;;
22268;SDS011;11303;50.772;19.670;2024-02-16T04:22:48;96.03;;;48.58;;
22268;SDS011;11303;50.772;19.670;2024-02-16T04:24:50;90.88;;;47.17;;
22268;SDS011;11303;50.772;19.670;2024-02-16T04:26:51;98.43;;;47.40;;
22268;SDS011;11303;50.772;19.670;2024-02-16T04:28:53;113.07;;;55.78;;
22268;SDS011;11303;50.772;19.670;2024-02-16T04:30:55;89.60;;;47.45;;
22268;SDS011;11303;50.772;19.670;2024-02-16T04:32:56;99.50;;;45.53;;
22268;SDS011;11303;50.772;19.670;2024-02-16T04:34:58;84.85;;;40.75;;
22268;SDS011;11303;50.772;19.670;2024-02-16T04:37:00;84.88;;;45.13;;
22268;SDS011;11303;50.772;19.670;2024-02-16T04:39:02;84.30;;;41.47;;
22268;SDS011;11303;50.772;19.670;2024-02-16T04:41:08;86.28;;;44.85;;
22268;SDS011;11303;50.772;19.670;2024-02-16T04:43:09;81.38;;;40.60;;
22268;SDS011;11303;50.772;19.670;2024-02-16T04:45:11;84.03;;;38.88;;
22268;SDS011;11303;50.772;19.670;2024-02-16T04:47:14;86.88;;;43.65;;
22268;SDS011;11303;50.772;19.670;2024-02-16T04:49:16;78.95;;;40.25;;
22268;SDS011;11303;50.772;19.670;2024-02-16T04:51:19;84.38;;;42.10;;
22268;SDS011;11303;50.772;19.670;2024-02-16T04:53:21;84.28;;;38.13;;
22268;SDS011;11303;50.772;19.670;2024-02-16T04:55:22;72.53;;;36.13;;
22268;SDS011;11303;50.772;19.670;2024-02-16T04:57:24;72.10;;;33.35;;
22268;SDS011;11303;50.772;19.670;2024-02-16T04:59:25;69.85;;;36.28;;
22268;SDS011;11303;50.772;19.670;2024-02-16T05:01:28;83.35;;;44.80;;
22268;SDS011;11303;50.772;19.670;2024-02-16T05:03:31;75.55;;;40.13;;
22268;SDS011;11303;50.772;19.670;2024-02-16T05:05:32;76.95;;;40.28;;
22268;SDS011;11303;50.772;19.670;2024-02-16T05:07:34;76.90;;;38.13;;
22268;SDS011;11303;50.772;19.670;2024-02-16T05:09:38;85.20;;;42.58;;
22268;SDS011;11303;50.772;19.670;2024-02-16T05:11:41;86.95;;;40.50;;
22268;SDS011;11303;50.772;19.670;2024-02-16T05:13:43;87.18;;;45.10;;
22268;SDS011;11303;50.772;19.670;2024-02-16T05:15:45;88.50;;;43.53;;
22268;SDS011;11303;50.772;19.670;2024-02-16T05:17:50;108.95;;;52.03;;
22268;SDS011;11303;50.772;19.670;2024-02-16T05:19:52;93.20;;;49.67;;
22268;SDS011;11303;50.772;19.670;2024-02-16T05:21:55;89.75;;;45.95;;
22268;SDS011;11303;50.772;19.670;2024-02-16T05:23:57;90.75;;;46.92;;
22268;SDS011;11303;50.772;19.670;2024-02-16T05:25:59;94.40;;;45.78;;
22268;SDS011;11303;50.772;19.670;2024-02-16T05:28:00;87.85;;;42.75;;
22268;SDS011;11303;50.772;19.670;2024-02-16T05:30:03;85.75;;;44.35;;
22268;SDS011;11303;50.772;19.670;2024-02-16T05:32:08;63.20;;;27.80;;
22268;SDS011;11303;50.772;19.670;2024-02-16T05:34:11;85.53;;;43.20;;
22268;SDS011;11303;50.772;19.670;2024-02-16T05:36:21;79.57;;;36.83;;
22268;SDS011;11303;50.772;19.670;2024-02-16T05:38:26;74.13;;;34.72;;
22268;SDS011;11303;50.772;19.670;2024-02-16T05:42:55;77.13;;;42.10;;
22268;SDS011;11303;50.772;19.670;2024-02-16T05:44:59;85.88;;;46.55;;
22268;SDS011;11303;50.772;19.670;2024-02-16T05:47:01;96.28;;;47.78;;
22268;SDS011;11303;50.772;19.670;2024-02-16T05:49:04;89.50;;;48.85;;
22268;SDS011;11303;50.772;19.670;2024-02-16T05:51:09;93.20;;;48.55;;
22268;SDS011;11303;50.772;19.670;2024-02-16T05:53:13;91.97;;;46.88;;
22268;SDS011;11303;50.772;19.670;2024-02-16T05:55:15;84.30;;;45.17;;
22268;SDS011;11303;50.772;19.670;2024-02-16T05:57:17;92.88;;;46.95;;
22268;SDS011;11303;50.772;19.670;2024-02-16T05:59:19;93.95;;;46.40;;
22268;SDS011;11303;50.772;19.670;2024-02-16T06:01:21;89.38;;;45.38;;
22268;SDS011;11303;50.772;19.670;2024-02-16T06:03:23;75.28;;;38.65;;
22268;SDS011;11303;50.772;19.670;2024-02-16T06:05:25;86.20;;;46.67;;
22268;SDS011;11303;50.772;19.670;2024-02-16T06:07:26;65.32;;;32.72;;
22268;SDS011;11303;50.772;19.670;2024-02-16T06:09:28;78.78;;;40.97;;
22268;SDS011;11303;50.772;19.670;2024-02-16T06:11:38;66.88;;;33.42;;
22268;SDS011;11303;50.772;19.670;2024-02-16T06:13:40;84.60;;;41.47;;
22268;SDS011;11303;50.772;19.670;2024-02-16T06:15:42;71.45;;;33.70;;
22268;SDS011;11303;50.772;19.670;2024-02-16T06:17:44;71.68;;;35.42;;
22268;SDS011;11303;50.772;19.670;2024-02-16T06:19:46;67.60;;;35.38;;
22268;SDS011;11303;50.772;19.670;2024-02-16T06:21:48;80.97;;;40.38;;
22268;SDS011;11303;50.772;19.670;2024-02-16T06:23:49;77.85;;;37.38;;
22268;SDS011;11303;50.772;19.670;2024-02-16T06:25:51;86.05;;;44.63;;
22268;SDS011;11303;50.772;19.670;2024-02-16T06:27:53;70.60;;;31.65;;
22268;SDS011;11303;50.772;19.670;2024-02-16T06:29:54;77.75;;;36.95;;
22268;SDS011;11303;50.772;19.670;2024-02-16T06:31:57;75.03;;;37.10;;
22268;SDS011;11303;50.772;19.670;2024-02-16T06:33:58;75.25;;;38.67;;
22268;SDS011;11303;50.772;19.670;2024-02-16T06:36:00;73.10;;;36.97;;
22268;SDS011;11303;50.772;19.670;2024-02-16T06:38:02;74.72;;;39.20;;
22268;SDS011;11303;50.772;19.670;2024-02-16T06:40:04;72.47;;;38.95;;
22268;SDS011;11303;50.772;19.670;2024-02-16T06:42:07;65.57;;;34.58;;
22268;SDS011;11303;50.772;19.670;2024-02-16T06:44:08;77.45;;;39.33;;
22268;SDS011;11303;50.772;19.670;2024-02-16T06:46:11;70.88;;;36.53;;
22268;SDS011;11303;50.772;19.670;2024-02-16T06:48:13;71.78;;;39.17;;
22268;SDS011;11303;50.772;19.670;2024-02-16T06:50:14;75.40;;;40.33;;
22268;SDS011;11303;50.772;19.670;2024-02-16T06:52:16;72.03;;;39.75;;
22268;SDS011;11303;50.772;19.670;2024-02-16T06:54:18;72.15;;;37.30;;
22268;SDS011;11303;50.772;19.670;2024-02-16T06:56:20;92.50;;;48.17;;
22268;SDS011;11303;50.772;19.670;2024-02-16T06:58:22;101.80;;;56.83;;
22268;SDS011;11303;50.772;19.670;2024-02-16T07:00:23;84.70;;;45.13;;
22268;SDS011;11303;50.772;19.670;2024-02-16T07:02:25;96.28;;;50.17;;
22268;SDS011;11303;50.772;19.670;2024-02-16T07:04:27;85.43;;;46.35;;
22268;SDS011;11303;50.772;19.670;2024-02-16T07:06:29;84.68;;;47.83;;
22268;SDS011;11303;50.772;19.670;2024-02-16T07:08:31;77.40;;;37.55;;
22268;SDS011;11303;50.772;19.670;2024-02-16T07:10:33;88.20;;;42.67;;
22268;SDS011;11303;50.772;19.670;2024-02-16T07:12:35;80.45;;;40.13;;
22268;SDS011;11303;50.772;19.670;2024-02-16T07:14:37;72.05;;;38.45;;
22268;SDS011;11303;50.772;19.670;2024-02-16T07:16:38;68.97;;;38.47;;
22268;SDS011;11303;50.772;19.670;2024-02-16T07:18:40;77.35;;;42.58;;
22268;SDS011;11303;50.772;19.670;2024-02-16T07:20:43;78.13;;;43.15;;
22268;SDS011;11303;50.772;19.670;2024-02-16T07:22:48;84.22;;;39.15;;
22268;SDS011;11303;50.772;19.670;2024-02-16T07:24:52;73.88;;;38.15;;
22268;SDS011;11303;50.772;19.670;2024-02-16T07:26:54;74.43;;;40.03;;
22268;SDS011;11303;50.772;19.670;2024-02-16T07:28:55;65.78;;;37.10;;
22268;SDS011;11303;50.772;19.670;2024-02-16T07:30:57;68.68;;;38.08;;
22268;SDS011;11303;50.772;19.670;2024-02-16T07:32:59;78.63;;;40.50;;
22268;SDS011;11303;50.772;19.670;2024-02-16T07:35:01;72.47;;;38.75;;
22268;SDS011;11303;50.772;19.670;2024-02-16T07:37:04;71.10;;;38.50;;
22268;SDS011;11303;50.772;19.670;2024-02-16T07:39:06;63.72;;;34.85;;
22268;SDS011;11303;50.772;19.670;2024-02-16T07:41:08;64.40;;;35.50;;
22268;SDS011;11303;50.772;19.670;2024-02-16T07:43:10;65.15;;;35.28;;
22268;SDS011;11303;50.772;19.670;2024-02-16T07:45:12;62.60;;;33.85;;
22268;SDS011;11303;50.772;19.670;2024-02-16T07:47:14;58.33;;;34.00;;
22268;SDS011;11303;50.772;19.670;2024-02-16T07:49:16;55.67;;;31.67;;
22268;SDS011;11303;50.772;19.670;2024-02-16T07:51:18;54.03;;;32.35;;
22268;SDS011;11303;50.772;19.670;2024-02-16T07:53:20;55.38;;;31.33;;
22268;SDS011;11303;50.772;19.670;2024-02-16T07:55:21;60.38;;;35.00;;
22268;SDS011;11303;50.772;19.670;2024-02-16T07:57:25;59.35;;;33.00;;
22268;SDS011;11303;50.772;19.670;2024-02-16T07:59:27;49.63;;;28.85;;
22268;SDS011;11303;50.772;19.670;2024-02-16T08:01:29;54.55;;;31.67;;
22268;SDS011;11303;50.772;19.670;2024-02-16T08:03:30;56.72;;;31.33;;
22268;SDS011;11303;50.772;19.670;2024-02-16T08:05:32;52.95;;;28.40;;
22268;SDS011;11303;50.772;19.670;2024-02-16T08:07:34;46.90;;;29.15;;
22268;SDS011;11303;50.772;19.670;2024-02-16T08:09:36;47.42;;;25.90;;
22268;SDS011;11303;50.772;19.670;2024-02-16T08:11:38;50.95;;;29.90;;
22268;SDS011;11303;50.772;19.670;2024-02-16T08:13:40;53.63;;;32.83;;
22268;SDS011;11303;50.772;19.670;2024-02-16T08:15:41;52.65;;;26.65;;
22268;SDS011;11303;50.772;19.670;2024-02-16T08:17:43;48.55;;;26.70;;
22268;SDS011;11303;50.772;19.670;2024-02-16T08:19:50;44.67;;;27.90;;
22268;SDS011;11303;50.772;19.670;2024-02-16T08:21:53;55.03;;;29.27;;
22268;SDS011;11303;50.772;19.670;2024-02-16T08:23:55;48.58;;;27.23;;
22268;SDS011;11303;50.772;19.670;2024-02-16T08:25:56;45.72;;;26.63;;
22268;SDS011;11303;50.772;19.670;2024-02-16T08:28:02;45.95;;;23.85;;
22268;SDS011;11303;50.772;19.670;2024-02-16T08:30:04;43.00;;;26.90;;
22268;SDS011;11303;50.772;19.670;2024-02-16T08:32:07;47.13;;;26.38;;
22268;SDS011;11303;50.772;19.670;2024-02-16T08:34:10;42.45;;;26.13;;
22268;SDS011;11303;50.772;19.670;2024-02-16T08:36:12;41.17;;;24.38;;
22268;SDS011;11303;50.772;19.670;2024-02-16T08:38:14;41.08;;;23.77;;
22268;SDS011;11303;50.772;19.670;2024-02-16T08:40:15;37.90;;;24.08;;
22268;SDS011;11303;50.772;19.670;2024-02-16T08:42:17;38.53;;;21.05;;
22268;SDS011;11303;50.772;19.670;2024-02-16T08:44:19;34.28;;;21.80;;
22268;SDS011;11303;50.772;19.670;2024-02-16T08:46:21;38.67;;;22.67;;
22268;SDS011;11303;50.772;19.670;2024-02-16T08:48:24;39.13;;;23.55;;
22268;SDS011;11303;50.772;19.670;2024-02-16T08:50:26;40.28;;;23.65;;
22268;SDS011;11303;50.772;19.670;2024-02-16T08:52:27;38.85;;;21.85;;
22268;SDS011;11303;50.772;19.670;2024-02-16T08:54:29;37.58;;;21.23;;
22268;SDS011;11303;50.772;19.670;2024-02-16T08:56:31;42.83;;;24.88;;
22268;SDS011;11303;50.772;19.670;2024-02-16T08:58:33;43.30;;;21.42;;
22268;SDS011;11303;50.772;19.670;2024-02-16T09:00:34;41.28;;;21.77;;
22268;SDS011;11303;50.772;19.670;2024-02-16T09:02:36;46.50;;;21.83;;
22268;SDS011;11303;50.772;19.670;2024-02-16T09:04:38;34.75;;;21.17;;
22268;SDS011;11303;50.772;19.670;2024-02-16T09:06:39;30.15;;;17.20;;
22268;SDS011;11303;50.772;19.670;2024-02-16T09:08:42;31.60;;;19.25;;
22268;SDS011;11303;50.772;19.670;2024-02-16T09:10:44;31.50;;;19.90;;
22268;SDS011;11303;50.772;19.670;2024-02-16T09:12:46;30.13;;;16.42;;
22268;SDS011;11303;50.772;19.670;2024-02-16T09:14:48;30.45;;;16.95;;
22268;SDS011;11303;50.772;19.670;2024-02-16T09:16:50;21.05;;;13.43;;
22268;SDS011;11303;50.772;19.670;2024-02-16T09:18:54;33.40;;;18.85;;
22268;SDS011;11303;50.772;19.670;2024-02-16T09:20:56;21.85;;;12.18;;
22268;SDS011;11303;50.772;19.670;2024-02-16T09:22:58;28.45;;;17.42;;
22268;SDS011;11303;50.772;19.670;2024-02-16T09:25:02;35.65;;;20.90;;
22268;SDS011;11303;50.772;19.670;2024-02-16T09:27:04;28.45;;;15.90;;
22268;SDS011;11303;50.772;19.670;2024-02-16T09:29:06;36.95;;;21.35;;
22268;SDS011;11303;50.772;19.670;2024-02-16T09:31:08;19.38;;;12.10;;
22268;SDS011;11303;50.772;19.670;2024-02-16T09:33:09;16.65;;;10.27;;
22268;SDS011;11303;50.772;19.670;2024-02-16T09:35:11;21.00;;;11.77;;
22268;SDS011;11303;50.772;19.670;2024-02-16T09:37:14;20.90;;;10.40;;
22268;SDS011;11303;50.772;19.670;2024-02-16T09:39:17;17.73;;;9.85;;
22268;SDS011;11303;50.772;19.670;2024-02-16T09:41:18;15.80;;;9.27;;
22268;SDS011;11303;50.772;19.670;2024-02-16T09:43:26;18.30;;;9.77;;
22268;SDS011;11303;50.772;19.670;2024-02-16T09:45:29;17.50;;;9.82;;
22268;SDS011;11303;50.772;19.670;2024-02-16T09:47:33;14.85;;;9.25;;
22268;SDS011;11303;50.772;19.670;2024-02-16T09:49:36;14.40;;;9.32;;
22268;SDS011;11303;50.772;19.670;2024-02-16T09:51:41;14.93;;;9.18;;
22268;SDS011;11303;50.772;19.670;2024-02-16T09:53:43;12.00;;;7.32;;
22268;SDS011;11303;50.772;19.670;2024-02-16T09:55:44;8.02;;;4.20;;
22268;SDS011;11303;50.772;19.670;2024-02-16T09:57:47;12.15;;;6.50;;
22268;SDS011;11303;50.772;19.670;2024-02-16T09:59:48;12.38;;;7.32;;
22268;SDS011;11303;50.772;19.670;2024-02-16T10:01:59;19.10;;;9.27;;
22268;SDS011;11303;50.772;19.670;2024-02-16T10:04:06;14.25;;;8.52;;
22268;SDS011;11303;50.772;19.670;2024-02-16T10:06:11;13.43;;;7.32;;
22268;SDS011;11303;50.772;19.670;2024-02-16T10:08:13;12.40;;;7.88;;
22268;SDS011;11303;50.772;19.670;2024-02-16T10:12:27;12.55;;;6.60;;
22268;SDS011;11303;50.772;19.670;2024-02-16T10:14:30;83.43;;;40.85;;
22268;SDS011;11303;50.772;19.670;2024-02-16T10:16:33;17.42;;;10.35;;
22268;SDS011;11303;50.772;19.670;2024-02-16T10:18:35;10.68;;;6.75;;
22268;SDS011;11303;50.772;19.670;2024-02-16T10:20:39;13.05;;;7.50;;
22268;SDS011;11303;50.772;19.670;2024-02-16T10:22:41;11.38;;;6.70;;
22268;SDS011;11303;50.772;19.670;2024-02-16T10:24:49;11.55;;;7.53;;
22268;SDS011;11303;50.772;19.670;2024-02-16T10:26:51;12.75;;;7.80;;
22268;SDS011;11303;50.772;19.670;2024-02-16T10:28:56;12.77;;;7.75;;
22268;SDS011;11303;50.772;19.670;2024-02-16T10:30:59;12.68;;;5.95;;
22268;SDS011;11303;50.772;19.670;2024-02-16T10:33:06;11.30;;;6.57;;
22268;SDS011;11303;50.772;19.670;2024-02-16T10:35:09;17.00;;;6.13;;
22268;SDS011;11303;50.772;19.670;2024-02-16T10:37:13;9.93;;;5.78;;
22268;SDS011;11303;50.772;19.670;2024-02-16T10:39:16;10.98;;;5.72;;
22268;SDS011;11303;50.772;19.670;2024-02-16T10:41:19;11.70;;;6.30;;
22268;SDS011;11303;50.772;19.670;2024-02-16T10:43:22;11.73;;;5.82;;
22268;SDS011;11303;50.772;19.670;2024-02-16T10:45:25;15.05;;;7.75;;
22268;SDS011;11303;50.772;19.670;2024-02-16T10:47:27;16.27;;;7.18;;
22268;SDS011;11303;50.772;19.670;2024-02-16T10:49:29;6.68;;;3.95;;
22268;SDS011;11303;50.772;19.670;2024-02-16T10:51:34;10.57;;;5.72;;
22268;SDS011;11303;50.772;19.670;2024-02-16T10:53:40;10.80;;;6.20;;
22268;SDS011;11303;50.772;19.670;2024-02-16T10:55:43;6.65;;;3.80;;
22268;SDS011;11303;50.772;19.670;2024-02-16T10:57:45;13.50;;;5.53;;
22268;SDS011;11303;50.772;19.670;2024-02-16T10:59:47;6.80;;;4.43;;
22268;SDS011;11303;50.772;19.670;2024-02-16T11:01:59;8.73;;;5.38;;
22268;SDS011;11303;50.772;19.670;2024-02-16T11:04:03;10.98;;;6.28;;
22268;SDS011;11303;50.772;19.670;2024-02-16T11:06:13;10.32;;;5.60;;
22268;SDS011;11303;50.772;19.670;2024-02-16T11:08:18;9.02;;;5.88;;
22268;SDS011;11303;50.772;19.670;2024-02-16T11:10:21;9.55;;;5.90;;
22268;SDS011;11303;50.772;19.670;2024-02-16T11:12:22;9.98;;;4.82;;
22268;SDS011;11303;50.772;19.670;2024-02-16T11:14:33;10.65;;;5.85;;
22268;SDS011;11303;50.772;19.670;2024-02-16T11:16:43;5.30;;;2.95;;
22268;SDS011;11303;50.772;19.670;2024-02-16T11:18:46;32.72;;;16.85;;
22268;SDS011;11303;50.772;19.670;2024-02-16T11:20:50;19.25;;;9.77;;
22268;SDS011;11303;50.772;19.670;2024-02-16T11:22:52;20.95;;;10.43;;
22268;SDS011;11303;50.772;19.670;2024-02-16T11:24:54;25.42;;;12.30;;
22268;SDS011;11303;50.772;19.670;2024-02-16T11:27:04;37.10;;;15.52;;
22268;SDS011;11303;50.772;19.670;2024-02-16T11:29:08;18.27;;;9.30;;
22268;SDS011;11303;50.772;19.670;2024-02-16T11:31:11;16.27;;;5.80;;
22268;SDS011;11303;50.772;19.670;2024-02-16T11:33:13;20.25;;;8.95;;
22268;SDS011;11303;50.772;19.670;2024-02-16T11:35:15;63.38;;;25.77;;
22268;SDS011;11303;50.772;19.670;2024-02-16T11:37:18;47.78;;;19.38;;
22268;SDS011;11303;50.772;19.670;2024-02-16T11:39:20;51.55;;;21.60;;
22268;SDS011;11303;50.772;19.670;2024-02-16T11:41:22;26.45;;;10.80;;
22268;SDS011;11303;50.772;19.670;2024-02-16T11:43:24;18.73;;;6.38;;
22268;SDS011;11303;50.772;19.670;2024-02-16T11:45:26;9.68;;;4.97;;
22268;SDS011;11303;50.772;19.670;2024-02-16T11:47:28;8.60;;;4.50;;
22268;SDS011;11303;50.772;19.670;2024-02-16T11:49:31;7.45;;;4.80;;
22268;SDS011;11303;50.772;19.670;2024-02-16T11:51:33;6.93;;;4.22;;